sensor_id;sensor_type;location;lat;lon;timestamp;temperature;humidity
12436;DHT22;6282;51.440;6.938;2023-11-18T00:01:07;4.60;99.90
12436;DHT22;6282;51.440;6.938;2023-11-18T00:03:35;4.70;99.90
12436;DHT22;6282;51.440;6.938;2023-11-18T00:06:02;4.70;99.90
12436;DHT22;6282;51.440;6.938;2023-11-18T00:08:30;4.70;99.90
12436;DHT22;6282;51.440;6.938;2023-11-18T00:10:57;4.70;99.90
12436;DHT22;6282;51.440;6.938;2023-11-18T00:13:25;4.60;99.90
12436;DHT22;6282;51.440;6.938;2023-11-18T00:15:53;4.60;99.90
12436;DHT22;6282;51.440;6.938;2023-11-18T00:18:20;4.60;99.90
12436;DHT22;6282;51.440;6.938;2023-11-18T00:20:47;4.70;99.90
12436;DHT22;6282;51.440;6.938;2023-11-18T00:23:16;4.60;99.90
12436;DHT22;6282;51.440;6.938;2023-11-18T00:25:43;4.60;99.90
12436;DHT22;6282;51.440;6.938;2023-11-18T00:28:11;4.60;99.90
12436;DHT22;6282;51.440;6.938;2023-11-18T00:30:40;4.60;99.90
12436;DHT22;6282;51.440;6.938;2023-11-18T00:33:07;4.70;99.90
12436;DHT22;6282;51.440;6.938;2023-11-18T00:35:34;4.60;99.90
12436;DHT22;6282;51.440;6.938;2023-11-18T00:38:01;4.60;99.90
12436;DHT22;6282;51.440;6.938;2023-11-18T00:40:28;4.60;99.90
12436;DHT22;6282;51.440;6.938;2023-11-18T00:42:55;4.60;99.90
12436;DHT22;6282;51.440;6.938;2023-11-18T00:45:22;4.60;99.90
12436;DHT22;6282;51.440;6.938;2023-11-18T00:47:51;4.70;99.90
12436;DHT22;6282;51.440;6.938;2023-11-18T00:50:18;4.70;99.90
12436;DHT22;6282;51.440;6.938;2023-11-18T00:52:44;4.60;99.90
12436;DHT22;6282;51.440;6.938;2023-11-18T00:55:13;4.60;99.90
12436;DHT22;6282;51.440;6.938;2023-11-18T00:57:43;4.70;99.90
12436;DHT22;6282;51.440;6.938;2023-11-18T01:00:12;4.60;99.90
12436;DHT22;6282;51.440;6.938;2023-11-18T01:02:41;4.70;99.90
12436;DHT22;6282;51.440;6.938;2023-11-18T01:05:10;4.60;99.90
12436;DHT22;6282;51.440;6.938;2023-11-18T01:07:39;4.80;99.90
12436;DHT22;6282;51.440;6.938;2023-11-18T01:10:07;4.70;99.90
12436;DHT22;6282;51.440;6.938;2023-11-18T01:12:35;4.70;99.90
12436;DHT22;6282;51.440;6.938;2023-11-18T01:15:02;4.70;99.90
12436;DHT22;6282;51.440;6.938;2023-11-18T01:17:29;4.70;99.90
12436;DHT22;6282;51.440;6.938;2023-11-18T01:19:57;4.70;99.90
12436;DHT22;6282;51.440;6.938;2023-11-18T01:22:25;4.60;99.90
12436;DHT22;6282;51.440;6.938;2023-11-18T01:24:52;4.60;99.90
12436;DHT22;6282;51.440;6.938;2023-11-18T01:27:19;4.60;99.90
12436;DHT22;6282;51.440;6.938;2023-11-18T01:29:46;4.70;99.90
12436;DHT22;6282;51.440;6.938;2023-11-18T01:32:13;4.70;99.90
12436;DHT22;6282;51.440;6.938;2023-11-18T01:34:40;4.70;99.90
12436;DHT22;6282;51.440;6.938;2023-11-18T01:37:09;4.70;99.90
12436;DHT22;6282;51.440;6.938;2023-11-18T01:39:37;4.70;99.90
12436;DHT22;6282;51.440;6.938;2023-11-18T01:42:04;4.80;99.90
12436;DHT22;6282;51.440;6.938;2023-11-18T01:44:31;4.80;99.90
12436;DHT22;6282;51.440;6.938;2023-11-18T01:46:59;4.70;99.90
12436;DHT22;6282;51.440;6.938;2023-11-18T01:49:32;4.70;99.90
12436;DHT22;6282;51.440;6.938;2023-11-18T01:51:59;4.80;99.90
12436;DHT22;6282;51.440;6.938;2023-11-18T01:54:27;4.70;99.90
12436;DHT22;6282;51.440;6.938;2023-11-18T01:56:55;4.70;99.90
12436;DHT22;6282;51.440;6.938;2023-11-18T01:59:22;4.90;99.90
12436;DHT22;6282;51.440;6.938;2023-11-18T02:01:52;4.70;99.90
12436;DHT22;6282;51.440;6.938;2023-11-18T02:04:23;4.80;99.90
12436;DHT22;6282;51.440;6.938;2023-11-18T02:06:51;4.70;99.90
12436;DHT22;6282;51.440;6.938;2023-11-18T02:09:19;4.70;99.90
12436;DHT22;6282;51.440;6.938;2023-11-18T02:11:56;4.80;99.90
12436;DHT22;6282;51.440;6.938;2023-11-18T02:14:26;4.70;99.90
12436;DHT22;6282;51.440;6.938;2023-11-18T02:16:56;4.70;99.90
12436;DHT22;6282;51.440;6.938;2023-11-18T02:19:24;4.70;99.90
12436;DHT22;6282;51.440;6.938;2023-11-18T02:21:53;4.70;99.90
12436;DHT22;6282;51.440;6.938;2023-11-18T02:24:26;4.70;99.90
12436;DHT22;6282;51.440;6.938;2023-11-18T02:26:57;4.70;99.90
12436;DHT22;6282;51.440;6.938;2023-11-18T02:29:24;4.70;99.90
12436;DHT22;6282;51.440;6.938;2023-11-18T02:31:55;4.80;99.90
12436;DHT22;6282;51.440;6.938;2023-11-18T02:34:27;4.80;99.90
12436;DHT22;6282;51.440;6.938;2023-11-18T02:36:57;4.80;99.90
12436;DHT22;6282;51.440;6.938;2023-11-18T02:39:29;4.80;99.90
12436;DHT22;6282;51.440;6.938;2023-11-18T02:42:01;4.90;99.90
12436;DHT22;6282;51.440;6.938;2023-11-18T02:44:30;5.00;99.90
12436;DHT22;6282;51.440;6.938;2023-11-18T02:46:58;5.00;99.90
12436;DHT22;6282;51.440;6.938;2023-11-18T02:49:26;5.00;99.90
12436;DHT22;6282;51.440;6.938;2023-11-18T02:51:53;5.00;99.90
12436;DHT22;6282;51.440;6.938;2023-11-18T02:54:20;5.00;99.90
12436;DHT22;6282;51.440;6.938;2023-11-18T02:56:46;5.00;99.90
12436;DHT22;6282;51.440;6.938;2023-11-18T02:59:15;5.00;99.90
12436;DHT22;6282;51.440;6.938;2023-11-18T03:01:41;5.10;99.90
12436;DHT22;6282;51.440;6.938;2023-11-18T03:04:08;5.10;99.90
12436;DHT22;6282;51.440;6.938;2023-11-18T03:06:35;5.10;99.90
12436;DHT22;6282;51.440;6.938;2023-11-18T03:09:02;5.40;99.90
12436;DHT22;6282;51.440;6.938;2023-11-18T03:11:32;5.20;99.90
12436;DHT22;6282;51.440;6.938;2023-11-18T03:14:00;5.80;99.90
12436;DHT22;6282;51.440;6.938;2023-11-18T03:16:28;5.30;99.90
12436;DHT22;6282;51.440;6.938;2023-11-18T03:18:54;5.30;99.90
12436;DHT22;6282;51.440;6.938;2023-11-18T03:21:21;5.20;99.90
12436;DHT22;6282;51.440;6.938;2023-11-18T03:23:48;5.20;99.90
12436;DHT22;6282;51.440;6.938;2023-11-18T03:26:15;5.10;99.90
12436;DHT22;6282;51.440;6.938;2023-11-18T03:28:42;5.20;99.90
12436;DHT22;6282;51.440;6.938;2023-11-18T03:31:08;5.20;99.90
12436;DHT22;6282;51.440;6.938;2023-11-18T03:33:38;5.20;99.90
12436;DHT22;6282;51.440;6.938;2023-11-18T03:36:06;5.20;99.90
12436;DHT22;6282;51.440;6.938;2023-11-18T03:38:34;5.20;99.90
12436;DHT22;6282;51.440;6.938;2023-11-18T03:41:00;5.20;99.90
12436;DHT22;6282;51.440;6.938;2023-11-18T03:43:27;5.20;99.90
12436;DHT22;6282;51.440;6.938;2023-11-18T03:45:54;5.20;99.90
12436;DHT22;6282;51.440;6.938;2023-11-18T03:48:22;5.20;99.90
12436;DHT22;6282;51.440;6.938;2023-11-18T03:50:50;5.20;99.90
12436;DHT22;6282;51.440;6.938;2023-11-18T03:53:19;5.20;99.90
12436;DHT22;6282;51.440;6.938;2023-11-18T03:55:46;5.10;99.90
12436;DHT22;6282;51.440;6.938;2023-11-18T03:58:12;5.20;99.90
12436;DHT22;6282;51.440;6.938;2023-11-18T04:00:39;5.10;99.90
12436;DHT22;6282;51.440;6.938;2023-11-18T04:03:06;5.20;99.90
12436;DHT22;6282;51.440;6.938;2023-11-18T04:05:33;5.20;99.90
12436;DHT22;6282;51.440;6.938;2023-11-18T04:08:05;5.20;99.90
12436;DHT22;6282;51.440;6.938;2023-11-18T04:10:33;5.20;99.90
12436;DHT22;6282;51.440;6.938;2023-11-18T04:12:59;5.20;99.90
12436;DHT22;6282;51.440;6.938;2023-11-18T04:15:26;5.40;99.90
12436;DHT22;6282;51.440;6.938;2023-11-18T04:17:53;5.20;99.90
12436;DHT22;6282;51.440;6.938;2023-11-18T04:20:20;5.30;99.90
12436;DHT22;6282;51.440;6.938;2023-11-18T04:22:47;5.20;99.90
12436;DHT22;6282;51.440;6.938;2023-11-18T04:25:15;5.20;99.90
12436;DHT22;6282;51.440;6.938;2023-11-18T04:27:42;5.20;99.90
12436;DHT22;6282;51.440;6.938;2023-11-18T04:30:10;5.20;99.90
12436;DHT22;6282;51.440;6.938;2023-11-18T04:32:38;5.20;99.90
12436;DHT22;6282;51.440;6.938;2023-11-18T04:35:08;5.20;99.90
12436;DHT22;6282;51.440;6.938;2023-11-18T04:37:37;5.20;99.90
12436;DHT22;6282;51.440;6.938;2023-11-18T04:40:09;5.20;99.90
12436;DHT22;6282;51.440;6.938;2023-11-18T04:42:39;5.20;99.90
12436;DHT22;6282;51.440;6.938;2023-11-18T04:45:06;5.20;99.90
12436;DHT22;6282;51.440;6.938;2023-11-18T04:47:35;5.10;99.90
12436;DHT22;6282;51.440;6.938;2023-11-18T04:50:03;5.10;99.90
12436;DHT22;6282;51.440;6.938;2023-11-18T04:52:30;5.10;99.90
12436;DHT22;6282;51.440;6.938;2023-11-18T04:55:00;5.10;99.90
12436;DHT22;6282;51.440;6.938;2023-11-18T04:57:27;5.10;99.90
12436;DHT22;6282;51.440;6.938;2023-11-18T04:59:55;5.10;99.90
12436;DHT22;6282;51.440;6.938;2023-11-18T05:02:23;5.10;99.90
12436;DHT22;6282;51.440;6.938;2023-11-18T05:04:50;5.30;99.90
12436;DHT22;6282;51.440;6.938;2023-11-18T05:07:17;5.10;99.90
12436;DHT22;6282;51.440;6.938;2023-11-18T05:09:43;5.10;99.90
12436;DHT22;6282;51.440;6.938;2023-11-18T05:12:10;5.10;99.90
12436;DHT22;6282;51.440;6.938;2023-11-18T05:14:37;5.10;99.90
12436;DHT22;6282;51.440;6.938;2023-11-18T05:17:06;5.10;99.90
12436;DHT22;6282;51.440;6.938;2023-11-18T05:19:33;5.20;99.90
12436;DHT22;6282;51.440;6.938;2023-11-18T05:21:59;5.20;99.90
12436;DHT22;6282;51.440;6.938;2023-11-18T05:24:26;5.20;99.90
12436;DHT22;6282;51.440;6.938;2023-11-18T05:26:53;5.20;99.90
12436;DHT22;6282;51.440;6.938;2023-11-18T05:29:21;5.30;99.90
12436;DHT22;6282;51.440;6.938;2023-11-18T05:31:51;5.30;99.90
12436;DHT22;6282;51.440;6.938;2023-11-18T05:34:19;5.30;99.90
12436;DHT22;6282;51.440;6.938;2023-11-18T05:36:46;5.30;99.90
12436;DHT22;6282;51.440;6.938;2023-11-18T05:39:16;5.30;99.90
12436;DHT22;6282;51.440;6.938;2023-11-18T05:41:45;5.30;99.90
12436;DHT22;6282;51.440;6.938;2023-11-18T05:44:15;5.40;99.90
12436;DHT22;6282;51.440;6.938;2023-11-18T05:46:44;5.40;99.90
12436;DHT22;6282;51.440;6.938;2023-11-18T05:49:13;5.40;99.90
12436;DHT22;6282;51.440;6.938;2023-11-18T05:51:41;5.40;99.90
12436;DHT22;6282;51.440;6.938;2023-11-18T05:54:08;5.40;99.90
12436;DHT22;6282;51.440;6.938;2023-11-18T05:56:35;5.50;99.90
12436;DHT22;6282;51.440;6.938;2023-11-18T05:59:02;5.50;99.90
12436;DHT22;6282;51.440;6.938;2023-11-18T06:01:29;5.50;99.90
12436;DHT22;6282;51.440;6.938;2023-11-18T06:03:57;5.60;99.90
12436;DHT22;6282;51.440;6.938;2023-11-18T06:06:24;5.60;99.90
12436;DHT22;6282;51.440;6.938;2023-11-18T06:08:53;5.60;99.90
12436;DHT22;6282;51.440;6.938;2023-11-18T06:11:20;5.60;99.90
12436;DHT22;6282;51.440;6.938;2023-11-18T06:13:50;5.60;99.90
12436;DHT22;6282;51.440;6.938;2023-11-18T06:16:18;5.70;99.90
12436;DHT22;6282;51.440;6.938;2023-11-18T06:18:48;5.70;99.90
12436;DHT22;6282;51.440;6.938;2023-11-18T06:21:16;5.70;99.90
12436;DHT22;6282;51.440;6.938;2023-11-18T06:23:44;5.70;99.90
12436;DHT22;6282;51.440;6.938;2023-11-18T06:26:14;5.70;99.90
12436;DHT22;6282;51.440;6.938;2023-11-18T06:28:42;5.70;99.90
12436;DHT22;6282;51.440;6.938;2023-11-18T06:31:09;5.70;99.90
12436;DHT22;6282;51.440;6.938;2023-11-18T06:33:38;5.70;99.90
12436;DHT22;6282;51.440;6.938;2023-11-18T06:36:06;5.70;99.90
12436;DHT22;6282;51.440;6.938;2023-11-18T06:38:33;5.70;99.90
12436;DHT22;6282;51.440;6.938;2023-11-18T06:41:01;5.80;99.90
12436;DHT22;6282;51.440;6.938;2023-11-18T06:43:30;5.80;99.90
12436;DHT22;6282;51.440;6.938;2023-11-18T06:46:11;5.70;99.90
12436;DHT22;6282;51.440;6.938;2023-11-18T06:48:39;5.70;99.90
12436;DHT22;6282;51.440;6.938;2023-11-18T06:51:06;5.80;99.90
12436;DHT22;6282;51.440;6.938;2023-11-18T06:53:34;5.80;99.90
12436;DHT22;6282;51.440;6.938;2023-11-18T06:56:01;5.90;99.90
12436;DHT22;6282;51.440;6.938;2023-11-18T06:58:27;5.90;99.90
12436;DHT22;6282;51.440;6.938;2023-11-18T07:00:55;5.90;99.90
12436;DHT22;6282;51.440;6.938;2023-11-18T07:03:22;5.90;99.90
12436;DHT22;6282;51.440;6.938;2023-11-18T07:05:49;5.90;99.90
12436;DHT22;6282;51.440;6.938;2023-11-18T07:08:16;5.90;99.90
12436;DHT22;6282;51.440;6.938;2023-11-18T07:10:42;5.90;99.90
12436;DHT22;6282;51.440;6.938;2023-11-18T07:13:09;6.00;99.90
12436;DHT22;6282;51.440;6.938;2023-11-18T07:15:36;5.90;99.90
12436;DHT22;6282;51.440;6.938;2023-11-18T07:18:04;6.00;99.90
12436;DHT22;6282;51.440;6.938;2023-11-18T07:20:31;6.00;99.90
12436;DHT22;6282;51.440;6.938;2023-11-18T07:22:58;6.10;99.90
12436;DHT22;6282;51.440;6.938;2023-11-18T07:25:25;6.10;99.90
12436;DHT22;6282;51.440;6.938;2023-11-18T07:27:52;6.10;99.90
12436;DHT22;6282;51.440;6.938;2023-11-18T07:30:21;6.10;99.90
12436;DHT22;6282;51.440;6.938;2023-11-18T07:32:51;6.20;99.90
12436;DHT22;6282;51.440;6.938;2023-11-18T07:35:19;6.20;99.90
12436;DHT22;6282;51.440;6.938;2023-11-18T07:37:45;6.20;99.90
12436;DHT22;6282;51.440;6.938;2023-11-18T07:40:12;6.20;99.90
12436;DHT22;6282;51.440;6.938;2023-11-18T07:42:47;6.20;99.90
12436;DHT22;6282;51.440;6.938;2023-11-18T07:45:14;6.30;99.90
12436;DHT22;6282;51.440;6.938;2023-11-18T07:47:43;6.20;99.90
12436;DHT22;6282;51.440;6.938;2023-11-18T07:50:10;6.20;99.90
12436;DHT22;6282;51.440;6.938;2023-11-18T07:52:40;6.30;99.90
12436;DHT22;6282;51.440;6.938;2023-11-18T07:55:07;6.30;99.90
12436;DHT22;6282;51.440;6.938;2023-11-18T07:57:38;6.30;99.90
12436;DHT22;6282;51.440;6.938;2023-11-18T08:00:06;6.60;99.90
12436;DHT22;6282;51.440;6.938;2023-11-18T08:02:34;6.40;99.90
12436;DHT22;6282;51.440;6.938;2023-11-18T08:05:02;6.40;99.90
12436;DHT22;6282;51.440;6.938;2023-11-18T08:07:32;6.50;99.90
12436;DHT22;6282;51.440;6.938;2023-11-18T08:10:01;6.50;99.90
12436;DHT22;6282;51.440;6.938;2023-11-18T08:12:29;6.50;99.90
12436;DHT22;6282;51.440;6.938;2023-11-18T08:14:56;6.60;99.90
12436;DHT22;6282;51.440;6.938;2023-11-18T08:17:23;6.60;99.90
12436;DHT22;6282;51.440;6.938;2023-11-18T08:19:51;6.70;99.90
12436;DHT22;6282;51.440;6.938;2023-11-18T08:22:18;6.70;99.90
12436;DHT22;6282;51.440;6.938;2023-11-18T08:24:48;6.70;99.90
12436;DHT22;6282;51.440;6.938;2023-11-18T08:27:17;6.80;99.90
12436;DHT22;6282;51.440;6.938;2023-11-18T08:29:43;6.80;99.90
12436;DHT22;6282;51.440;6.938;2023-11-18T08:32:11;6.90;99.90
12436;DHT22;6282;51.440;6.938;2023-11-18T08:34:38;6.90;99.90
12436;DHT22;6282;51.440;6.938;2023-11-18T08:37:06;6.90;99.90
12436;DHT22;6282;51.440;6.938;2023-11-18T08:39:33;6.90;99.90
12436;DHT22;6282;51.440;6.938;2023-11-18T08:42:01;6.90;99.90
12436;DHT22;6282;51.440;6.938;2023-11-18T08:44:29;6.90;99.90
12436;DHT22;6282;51.440;6.938;2023-11-18T08:46:58;6.90;99.90
12436;DHT22;6282;51.440;6.938;2023-11-18T08:49:24;6.90;99.90
12436;DHT22;6282;51.440;6.938;2023-11-18T08:51:55;7.00;99.90
12436;DHT22;6282;51.440;6.938;2023-11-18T08:54:23;7.00;99.90
12436;DHT22;6282;51.440;6.938;2023-11-18T08:56:51;7.00;99.90
12436;DHT22;6282;51.440;6.938;2023-11-18T08:59:20;7.20;99.90
12436;DHT22;6282;51.440;6.938;2023-11-18T09:01:52;7.10;99.90
12436;DHT22;6282;51.440;6.938;2023-11-18T09:04:22;7.00;99.90
12436;DHT22;6282;51.440;6.938;2023-11-18T09:06:49;7.10;99.90
12436;DHT22;6282;51.440;6.938;2023-11-18T09:09:17;7.10;99.90
12436;DHT22;6282;51.440;6.938;2023-11-18T09:11:52;7.10;99.90
12436;DHT22;6282;51.440;6.938;2023-11-18T09:14:19;7.10;99.90
12436;DHT22;6282;51.440;6.938;2023-11-18T09:16:46;7.10;99.90
12436;DHT22;6282;51.440;6.938;2023-11-18T09:19:14;7.10;99.90
12436;DHT22;6282;51.440;6.938;2023-11-18T09:21:43;7.10;99.90
12436;DHT22;6282;51.440;6.938;2023-11-18T09:24:10;7.10;99.90
12436;DHT22;6282;51.440;6.938;2023-11-18T09:26:38;7.10;99.90
12436;DHT22;6282;51.440;6.938;2023-11-18T09:29:05;7.20;99.90
12436;DHT22;6282;51.440;6.938;2023-11-18T09:31:34;7.20;99.90
12436;DHT22;6282;51.440;6.938;2023-11-18T09:34:01;7.20;99.90
12436;DHT22;6282;51.440;6.938;2023-11-18T09:36:33;7.20;99.90
12436;DHT22;6282;51.440;6.938;2023-11-18T09:39:01;7.20;99.90
12436;DHT22;6282;51.440;6.938;2023-11-18T09:41:29;7.20;99.90
12436;DHT22;6282;51.440;6.938;2023-11-18T09:43:59;7.50;99.90
12436;DHT22;6282;51.440;6.938;2023-11-18T09:46:29;7.30;99.90
12436;DHT22;6282;51.440;6.938;2023-11-18T09:49:05;7.40;99.90
12436;DHT22;6282;51.440;6.938;2023-11-18T09:51:42;7.40;99.90
12436;DHT22;6282;51.440;6.938;2023-11-18T09:54:18;7.40;99.90
12436;DHT22;6282;51.440;6.938;2023-11-18T09:56:54;7.50;99.90
12436;DHT22;6282;51.440;6.938;2023-11-18T09:59:28;7.50;99.90
12436;DHT22;6282;51.440;6.938;2023-11-18T10:02:02;7.60;99.90
12436;DHT22;6282;51.440;6.938;2023-11-18T10:04:30;7.60;99.90
12436;DHT22;6282;51.440;6.938;2023-11-18T10:07:00;7.60;99.90
12436;DHT22;6282;51.440;6.938;2023-11-18T10:09:28;7.60;99.90
12436;DHT22;6282;51.440;6.938;2023-11-18T10:12:03;7.60;99.90
12436;DHT22;6282;51.440;6.938;2023-11-18T10:14:32;7.60;99.90
12436;DHT22;6282;51.440;6.938;2023-11-18T10:16:59;7.60;99.90
12436;DHT22;6282;51.440;6.938;2023-11-18T10:19:50;7.60;99.90
12436;DHT22;6282;51.440;6.938;2023-11-18T10:22:23;7.60;99.90
12436;DHT22;6282;51.440;6.938;2023-11-18T10:24:51;7.60;99.90
12436;DHT22;6282;51.440;6.938;2023-11-18T10:27:20;7.70;99.90
12436;DHT22;6282;51.440;6.938;2023-11-18T10:29:49;7.70;99.90
12436;DHT22;6282;51.440;6.938;2023-11-18T10:32:17;7.80;99.90
12436;DHT22;6282;51.440;6.938;2023-11-18T10:34:47;7.80;99.90
12436;DHT22;6282;51.440;6.938;2023-11-18T10:37:16;7.80;99.90
12436;DHT22;6282;51.440;6.938;2023-11-18T10:39:48;7.90;99.90
12436;DHT22;6282;51.440;6.938;2023-11-18T10:42:17;7.90;99.90
12436;DHT22;6282;51.440;6.938;2023-11-18T10:44:55;8.10;99.90
12436;DHT22;6282;51.440;6.938;2023-11-18T10:47:24;7.90;99.90
12436;DHT22;6282;51.440;6.938;2023-11-18T10:49:52;7.90;99.90
12436;DHT22;6282;51.440;6.938;2023-11-18T10:52:21;8.00;99.90
12436;DHT22;6282;51.440;6.938;2023-11-18T10:54:53;8.00;99.90
12436;DHT22;6282;51.440;6.938;2023-11-18T10:57:22;8.10;99.90
12436;DHT22;6282;51.440;6.938;2023-11-18T10:59:59;8.00;99.90
12436;DHT22;6282;51.440;6.938;2023-11-18T11:02:30;8.00;99.90
12436;DHT22;6282;51.440;6.938;2023-11-18T11:05:01;8.00;99.90
12436;DHT22;6282;51.440;6.938;2023-11-18T11:07:29;8.00;99.90
12436;DHT22;6282;51.440;6.938;2023-11-18T11:09:59;8.00;99.90
12436;DHT22;6282;51.440;6.938;2023-11-18T11:12:33;8.00;99.90
12436;DHT22;6282;51.440;6.938;2023-11-18T11:15:07;8.00;99.90
12436;DHT22;6282;51.440;6.938;2023-11-18T11:17:39;8.00;99.90
12436;DHT22;6282;51.440;6.938;2023-11-18T11:20:13;8.00;99.90
12436;DHT22;6282;51.440;6.938;2023-11-18T11:23:03;8.00;99.90
12436;DHT22;6282;51.440;6.938;2023-11-18T11:25:41;8.00;99.90
12436;DHT22;6282;51.440;6.938;2023-11-18T11:28:15;8.10;99.90
12436;DHT22;6282;51.440;6.938;2023-11-18T11:30:50;8.10;99.90
12436;DHT22;6282;51.440;6.938;2023-11-18T11:33:23;8.00;99.90
12436;DHT22;6282;51.440;6.938;2023-11-18T11:35:55;8.10;99.90
12436;DHT22;6282;51.440;6.938;2023-11-18T11:38:24;8.10;99.90
12436;DHT22;6282;51.440;6.938;2023-11-18T11:40:54;8.10;99.90
12436;DHT22;6282;51.440;6.938;2023-11-18T11:43:21;8.10;99.90
12436;DHT22;6282;51.440;6.938;2023-11-18T11:45:49;8.10;99.90
12436;DHT22;6282;51.440;6.938;2023-11-18T11:48:18;8.10;99.90
12436;DHT22;6282;51.440;6.938;2023-11-18T11:51:00;8.10;99.90
12436;DHT22;6282;51.440;6.938;2023-11-18T11:53:33;8.10;99.90
12436;DHT22;6282;51.440;6.938;2023-11-18T11:56:03;8.10;99.90
12436;DHT22;6282;51.440;6.938;2023-11-18T11:58:34;8.10;99.90
12436;DHT22;6282;51.440;6.938;2023-11-18T12:01:15;8.10;99.90
12436;DHT22;6282;51.440;6.938;2023-11-18T12:03:43;8.20;99.90
12436;DHT22;6282;51.440;6.938;2023-11-18T12:06:13;8.20;99.90
12436;DHT22;6282;51.440;6.938;2023-11-18T12:08:42;8.20;99.90
12436;DHT22;6282;51.440;6.938;2023-11-18T12:11:12;8.20;99.90
12436;DHT22;6282;51.440;6.938;2023-11-18T12:14:00;8.30;99.90
12436;DHT22;6282;51.440;6.938;2023-11-18T12:17:03;8.30;99.90
12436;DHT22;6282;51.440;6.938;2023-11-18T12:19:39;8.20;99.90
12436;DHT22;6282;51.440;6.938;2023-11-18T12:22:14;8.30;99.90
12436;DHT22;6282;51.440;6.938;2023-11-18T12:24:45;8.20;99.90
12436;DHT22;6282;51.440;6.938;2023-11-18T12:27:44;8.20;99.90
12436;DHT22;6282;51.440;6.938;2023-11-18T12:30:38;8.10;99.90
12436;DHT22;6282;51.440;6.938;2023-11-18T12:33:17;8.10;99.90
12436;DHT22;6282;51.440;6.938;2023-11-18T12:36:13;8.10;99.90
12436;DHT22;6282;51.440;6.938;2023-11-18T12:42:01;8.10;99.90
12436;DHT22;6282;51.440;6.938;2023-11-18T12:44:36;8.00;99.90
12436;DHT22;6282;51.440;6.938;2023-11-18T12:47:05;8.00;99.90
12436;DHT22;6282;51.440;6.938;2023-11-18T12:49:40;7.90;99.90
12436;DHT22;6282;51.440;6.938;2023-11-18T12:52:08;8.00;99.90
12436;DHT22;6282;51.440;6.938;2023-11-18T12:54:36;7.90;99.90
12436;DHT22;6282;51.440;6.938;2023-11-18T12:57:06;7.90;99.90
12436;DHT22;6282;51.440;6.938;2023-11-18T12:59:36;7.90;99.90
12436;DHT22;6282;51.440;6.938;2023-11-18T13:02:06;7.90;99.90
12436;DHT22;6282;51.440;6.938;2023-11-18T13:04:38;8.00;99.90
12436;DHT22;6282;51.440;6.938;2023-11-18T13:07:06;7.90;99.90
12436;DHT22;6282;51.440;6.938;2023-11-18T13:09:34;7.90;99.90
12436;DHT22;6282;51.440;6.938;2023-11-18T13:12:03;7.90;99.90
12436;DHT22;6282;51.440;6.938;2023-11-18T13:14:31;8.00;99.90
12436;DHT22;6282;51.440;6.938;2023-11-18T13:17:03;7.90;99.90
12436;DHT22;6282;51.440;6.938;2023-11-18T13:19:32;8.00;99.90
12436;DHT22;6282;51.440;6.938;2023-11-18T13:22:01;8.00;99.90
12436;DHT22;6282;51.440;6.938;2023-11-18T13:24:29;8.00;99.90
12436;DHT22;6282;51.440;6.938;2023-11-18T13:26:59;8.00;99.90
12436;DHT22;6282;51.440;6.938;2023-11-18T13:29:29;8.10;99.90
12436;DHT22;6282;51.440;6.938;2023-11-18T13:31:56;8.00;99.90
12436;DHT22;6282;51.440;6.938;2023-11-18T13:34:27;8.00;99.90
12436;DHT22;6282;51.440;6.938;2023-11-18T13:36:56;8.10;99.90
12436;DHT22;6282;51.440;6.938;2023-11-18T13:39:22;8.10;99.90
12436;DHT22;6282;51.440;6.938;2023-11-18T13:41:53;8.10;99.90
12436;DHT22;6282;51.440;6.938;2023-11-18T13:44:32;8.10;99.90
12436;DHT22;6282;51.440;6.938;2023-11-18T13:47:00;8.20;99.90
12436;DHT22;6282;51.440;6.938;2023-11-18T13:49:29;8.10;99.90
12436;DHT22;6282;51.440;6.938;2023-11-18T13:51:56;8.10;99.90
12436;DHT22;6282;51.440;6.938;2023-11-18T13:54:24;8.10;99.90
12436;DHT22;6282;51.440;6.938;2023-11-18T13:56:52;8.10;99.90
12436;DHT22;6282;51.440;6.938;2023-11-18T13:59:19;8.00;99.90
12436;DHT22;6282;51.440;6.938;2023-11-18T14:01:46;8.10;99.90
12436;DHT22;6282;51.440;6.938;2023-11-18T14:04:13;8.10;99.90
12436;DHT22;6282;51.440;6.938;2023-11-18T14:06:41;8.10;99.90
12436;DHT22;6282;51.440;6.938;2023-11-18T14:09:08;8.20;99.90
12436;DHT22;6282;51.440;6.938;2023-11-18T14:11:36;8.00;99.90
12436;DHT22;6282;51.440;6.938;2023-11-18T14:14:03;8.10;99.90
12436;DHT22;6282;51.440;6.938;2023-11-18T14:16:31;8.10;99.90
12436;DHT22;6282;51.440;6.938;2023-11-18T14:18:58;8.20;99.90
12436;DHT22;6282;51.440;6.938;2023-11-18T14:21:25;8.10;99.90
12436;DHT22;6282;51.440;6.938;2023-11-18T14:23:53;8.10;99.90
12436;DHT22;6282;51.440;6.938;2023-11-18T14:26:25;8.10;99.90
12436;DHT22;6282;51.440;6.938;2023-11-18T14:28:52;8.20;99.90
12436;DHT22;6282;51.440;6.938;2023-11-18T14:31:19;8.10;99.90
12436;DHT22;6282;51.440;6.938;2023-11-18T14:33:47;8.00;99.90
12436;DHT22;6282;51.440;6.938;2023-11-18T14:36:14;8.00;99.90
12436;DHT22;6282;51.440;6.938;2023-11-18T14:38:41;8.00;99.90
12436;DHT22;6282;51.440;6.938;2023-11-18T14:41:10;8.00;99.90
12436;DHT22;6282;51.440;6.938;2023-11-18T14:43:37;8.00;99.90
12436;DHT22;6282;51.440;6.938;2023-11-18T14:46:06;8.10;99.90
12436;DHT22;6282;51.440;6.938;2023-11-18T14:48:33;8.00;99.90
12436;DHT22;6282;51.440;6.938;2023-11-18T14:51:00;8.00;99.90
12436;DHT22;6282;51.440;6.938;2023-11-18T14:53:27;7.90;99.90
12436;DHT22;6282;51.440;6.938;2023-11-18T14:58:29;7.80;99.90
12436;DHT22;6282;51.440;6.938;2023-11-18T15:00:57;7.80;99.90
12436;DHT22;6282;51.440;6.938;2023-11-18T15:03:25;7.80;99.90
12436;DHT22;6282;51.440;6.938;2023-11-18T15:05:52;7.80;99.90
12436;DHT22;6282;51.440;6.938;2023-11-18T15:08:19;7.70;99.90
12436;DHT22;6282;51.440;6.938;2023-11-18T15:10:46;7.70;99.90
12436;DHT22;6282;51.440;6.938;2023-11-18T15:13:13;7.70;99.90
12436;DHT22;6282;51.440;6.938;2023-11-18T15:15:42;7.70;99.90
12436;DHT22;6282;51.440;6.938;2023-11-18T15:18:13;7.60;99.90
12436;DHT22;6282;51.440;6.938;2023-11-18T15:20:43;7.70;99.90
12436;DHT22;6282;51.440;6.938;2023-11-18T15:23:10;7.60;99.90
12436;DHT22;6282;51.440;6.938;2023-11-18T15:25:37;7.60;99.90
12436;DHT22;6282;51.440;6.938;2023-11-18T15:28:05;7.60;99.90
12436;DHT22;6282;51.440;6.938;2023-11-18T15:30:35;7.60;99.90
12436;DHT22;6282;51.440;6.938;2023-11-18T15:33:03;7.60;99.90
12436;DHT22;6282;51.440;6.938;2023-11-18T15:35:33;7.60;99.90
12436;DHT22;6282;51.440;6.938;2023-11-18T15:38:03;7.60;99.90
12436;DHT22;6282;51.440;6.938;2023-11-18T15:40:31;7.60;99.90
12436;DHT22;6282;51.440;6.938;2023-11-18T15:42:58;7.60;99.90
12436;DHT22;6282;51.440;6.938;2023-11-18T15:45:25;7.60;99.90
12436;DHT22;6282;51.440;6.938;2023-11-18T15:47:52;7.60;99.90
12436;DHT22;6282;51.440;6.938;2023-11-18T15:50:20;7.60;99.90
12436;DHT22;6282;51.440;6.938;2023-11-18T15:52:48;7.40;99.90
12436;DHT22;6282;51.440;6.938;2023-11-18T15:55:17;7.60;99.90
12436;DHT22;6282;51.440;6.938;2023-11-18T15:57:45;7.60;99.90
12436;DHT22;6282;51.440;6.938;2023-11-18T16:00:13;7.60;99.90
12436;DHT22;6282;51.440;6.938;2023-11-18T16:02:42;7.60;99.90
12436;DHT22;6282;51.440;6.938;2023-11-18T16:05:11;7.60;99.90
12436;DHT22;6282;51.440;6.938;2023-11-18T16:07:40;7.60;99.90
12436;DHT22;6282;51.440;6.938;2023-11-18T16:10:07;7.50;99.90
12436;DHT22;6282;51.440;6.938;2023-11-18T16:12:34;7.60;99.90
12436;DHT22;6282;51.440;6.938;2023-11-18T16:15:01;7.60;99.90
12436;DHT22;6282;51.440;6.938;2023-11-18T16:17:28;7.60;99.90
12436;DHT22;6282;51.440;6.938;2023-11-18T16:19:55;7.60;99.90